Time;durP1;ratioP1;P1;durP2;ratioP2;P2;SDS_P1;SDS_P2;PMS_P1;PMS_P2;Temp;Humidity;BMP_temperature;BMP_pressure;BME280_temperature;BME280_humidity;BME280_pressure;Samples;Min_cycle;Max_cycle;Signal;HPM_P1;HPM_P2
2022/03/12 00:00:50;;;;;;;18.42;9.75;;;;;;;13.90;29.22;101194.69;5037687;28;20048;-62
2022/03/12 00:03:18;;;;;;;13.77;9.52;;;;;;;13.89;29.28;101209.16;5055304;28;20127;-63
2022/03/12 00:05:52;;;;;;;18.80;10.20;;;;;;;13.88;29.24;101207.44;5054711;28;20490;-62
2022/03/12 00:08:21;;;;;;;19.30;10.02;;;;;;;13.86;29.22;101209.41;5055106;28;20048;-63
2022/03/12 00:10:51;;;;;;;13.23;9.07;;;;;;;13.85;29.30;101207.69;5055152;28;20041;-62
2022/03/12 00:13:22;;;;;;;15.80;9.35;;;;;;;13.84;28.93;101214.06;5054921;28;20037;-62
2022/03/12 00:15:52;;;;;;;13.65;9.05;;;;;;;13.82;29.21;101207.94;5055329;28;20445;-62
2022/03/12 00:18:20;;;;;;;15.75;9.32;;;;;;;13.82;29.23;101207.94;5036902;28;20434;-62
2022/03/12 00:20:48;;;;;;;13.65;9.63;;;;;;;13.83;29.34;101214.19;5055346;28;20037;-63
2022/03/12 00:23:21;;;;;;;16.73;9.77;;;;;;;13.84;29.22;101208.66;5054980;28;20080;-63
2022/03/12 00:25:48;;;;;;;15.93;9.82;;;;;;;13.86;29.42;101209.41;5055063;28;20120;-62
2022/03/12 00:28:19;;;;;;;15.88;9.32;;;;;;;13.88;29.36;101203.88;5054787;28;20079;-62
2022/03/12 00:30:49;;;;;;;18.10;10.18;;;;;;;13.87;29.16;101215.66;5054898;28;20045;-62
2022/03/12 00:33:18;;;;;;;20.88;10.13;;;;;;;13.87;29.35;101215.66;5054425;28;20499;-62
2022/03/12 00:35:51;;;;;;;14.70;9.00;;;;;;;13.87;29.42;101218.38;5054622;28;20111;-63
2022/03/12 00:38:20;;;;;;;13.50;9.70;;;;;;;13.87;29.41;101218.38;5036746;28;20041;-63
2022/03/12 00:40:48;;;;;;;14.02;9.20;;;;;;;13.87;29.35;101223.75;5036449;28;20040;-63
2022/03/12 00:43:17;;;;;;;13.63;8.98;;;;;;;13.87;29.43;101221.06;5054579;28;20036;-63
2022/03/12 00:45:45;;;;;;;14.23;9.63;;;;;;;13.88;29.49;101225.47;5054515;28;20049;-62
2022/03/12 00:48:12;;;;;;;18.58;9.68;;;;;;;13.91;29.20;101227.94;5036254;28;20043;-62
2022/03/12 00:50:59;;;;;;;20.27;9.90;;;;;;;13.93;29.27;101229.53;5054388;28;20055;-62
2022/03/12 00:53:25;;;;;;;16.98;9.52;;;;;;;13.96;29.28;101233.84;5054200;28;20045;-62
2022/03/12 00:55:52;;;;;;;15.00;8.82;;;;;;;13.96;29.29;101232.00;5054189;28;20491;-62
2022/03/12 00:58:22;;;;;;;14.95;10.13;;;;;;;13.99;29.27;101236.28;5053303;28;20045;-62
2022/03/12 01:00:49;;;;;;;20.63;9.10;;;;;;;13.99;29.42;101231.75;5036447;28;20127;-62
2022/03/12 01:03:16;;;;;;;16.38;9.25;;;;;;;14.00;29.51;101236.16;5054089;28;20037;-63
2022/03/12 01:05:49;;;;;;;15.50;10.32;;;;;;;14.02;29.43;101232.50;5054237;28;20049;-63
2022/03/12 01:08:20;;;;;;;17.73;9.55;;;;;;;14.04;29.32;101231.38;5053609;28;20091;-61
2022/03/12 01:10:47;;;;;;;13.93;9.18;;;;;;;14.06;29.32;101233.97;5054249;28;20092;-62
2022/03/12 01:13:14;;;;;;;12.23;9.05;;;;;;;14.06;29.34;101226.72;5053904;28;20044;-63
2022/03/12 01:15:41;;;;;;;14.95;8.98;;;;;;;14.07;29.43;101241.09;5053756;28;20049;-62
2022/03/12 01:18:13;;;;;;;14.73;9.60;;;;;;;14.08;29.36;101235.56;5053661;28;20070;-63
2022/03/12 01:20:41;;;;;;;12.82;8.95;;;;;;;14.09;29.30;101226.47;5053937;28;20551;-62
2022/03/12 01:23:09;;;;;;;17.42;8.60;;;;;;;14.11;29.22;101240.72;5053757;28;20505;-62
2022/03/12 01:25:36;;;;;;;14.90;9.00;;;;;;;14.13;29.30;101237.94;5053736;28;20123;-62
2022/03/12 01:28:03;;;;;;;16.10;9.77;;;;;;;14.14;29.29;101245.06;5053235;28;20144;-62
2022/03/12 01:30:31;;;;;;;13.65;9.27;;;;;;;14.14;29.21;101234.25;5053509;28;20045;-62
2022/03/12 01:32:58;;;;;;;15.68;9.48;;;;;;;14.14;29.25;101245.91;5053753;28;20040;-63
2022/03/12 01:35:25;;;;;;;12.35;9.25;;;;;;;14.16;29.17;101248.50;5053609;28;20140;-63
2022/03/12 01:37:52;;;;;;;13.73;8.95;;;;;;;14.16;29.30;101248.50;5053382;28;20048;-62
2022/03/12 01:40:19;;;;;;;17.08;8.93;;;;;;;14.14;29.34;101247.75;5053396;28;20048;-63
2022/03/12 01:42:47;;;;;;;12.18;8.90;;;;;;;14.14;29.18;101251.31;5053400;28;20056;-63
2022/03/12 01:45:26;;;;;;;12.98;8.80;;;;;;;14.14;29.45;101247.75;5053674;28;20048;-63
2022/03/12 01:48:01;;;;;;;17.25;9.50;;;;;;;14.13;29.13;101243.34;5035803;28;20052;-63
2022/03/12 01:50:35;;;;;;;15.57;9.07;;;;;;;14.11;29.21;101254.22;5033869;28;20072;-63
2022/03/12 01:53:09;;;;;;;13.63;9.18;;;;;;;14.11;29.35;101258.78;5034124;28;20527;-62
2022/03/12 01:55:40;;;;;;;12.55;8.98;;;;;;;14.09;29.37;101260.72;5033450;28;20049;-63
2022/03/12 01:58:08;;;;;;;14.52;8.90;;;;;;;14.06;29.28;101263.69;5048386;28;20045;-62
2022/03/12 02:00:48;;;;;;;11.55;8.15;;;;;;;14.04;29.38;101265.63;5053208;28;20048;-62
2022/03/12 02:03:22;;;;;;;14.73;9.27;;;;;;;14.03;29.63;101269.31;5053302;28;20080;-63
2022/03/12 02:05:52;;;;;;;12.60;9.10;;;;;;;14.00;29.66;101268.56;5053215;28;20041;-62
2022/03/12 02:08:20;;;;;;;12.88;9.13;;;;;;;13.98;29.72;101257.03;5052703;28;20045;-63
2022/03/12 02:10:50;;;;;;;12.60;9.18;;;;;;;13.95;29.89;101265.38;5035165;28;20047;-62
2022/03/12 02:13:17;;;;;;;13.73;9.18;;;;;;;13.91;29.89;101263.03;5035240;28;20419;-62
2022/03/12 02:15:44;;;;;;;13.52;8.65;;;;;;;13.87;29.98;101257.03;5052984;28;20681;-63
2022/03/12 02:18:13;;;;;;;11.50;8.65;;;;;;;13.86;29.98;101259.84;5052979;28;20041;-62
2022/03/12 02:20:42;;;;;;;13.15;8.85;;;;;;;13.83;30.17;101268.19;5054263;28;20499;-62
2022/03/12 02:23:10;;;;;;;15.85;8.60;;;;;;;13.81;30.13;101267.44;5057123;28;20119;-62
2022/03/12 02:25:37;;;;;;;11.68;8.52;;;;;;;13.78;30.22;101260.44;5056760;28;20096;-62
2022/03/12 02:28:15;;;;;;;15.25;9.52;;;;;;;13.76;30.38;101266.94;5057017;28;20075;-62
2022/03/12 02:30:51;;;;;;;12.73;8.80;;;;;;;13.77;30.30;101268.66;5057037;28;20061;-63
2022/03/12 02:33:28;;;;;;;12.27;8.80;;;;;;;13.76;30.31;101265.09;5039138;28;20044;-63
2022/03/12 02:35:57;;;;;;;12.65;8.25;;;;;;;13.73;30.52;101265.34;5056723;28;20045;-62
2022/03/12 02:38:27;;;;;;;16.38;9.25;;;;;;;13.71;30.46;101270.00;5038801;28;20095;-63
2022/03/12 02:40:56;;;;;;;13.57;8.32;;;;;;;13.68;30.53;101263.00;5056895;28;20041;-64
2022/03/12 02:43:26;;;;;;;15.32;9.07;;;;;;;13.68;30.47;101267.53;5056804;28;20073;-63
2022/03/12 02:45:55;;;;;;;13.00;9.18;;;;;;;13.68;30.59;101264.84;5038830;28;20456;-62
2022/03/12 02:48:24;;;;;;;11.85;8.38;;;;;;;13.66;30.61;101261.41;5038692;28;20075;-63
2022/03/12 02:50:53;;;;;;;17.10;8.70;;;;;;;13.66;30.62;101261.41;5038991;28;20487;-63
2022/03/12 02:53:19;;;;;;;11.43;8.70;;;;;;;13.66;30.74;101272.19;5056609;28;20044;-62
2022/03/12 02:55:51;;;;;;;15.75;9.80;;;;;;;13.63;30.77;101267.03;5038361;28;20045;-62
2022/03/12 02:58:18;;;;;;;12.32;8.48;;;;;;;13.63;30.87;101269.72;5038713;28;20063;-62
2022/03/12 03:00:45;;;;;;;12.52;9.02;;;;;;;13.61;30.78;101267.16;5056478;28;20051;-63
2022/03/12 03:03:12;;;;;;;13.88;9.57;;;;;;;13.61;30.77;101263.59;5038624;28;20094;-63
2022/03/12 03:05:45;;;;;;;15.38;9.18;;;;;;;13.61;30.82;101269.84;5056461;28;20041;-62
2022/03/12 03:08:20;;;;;;;14.55;9.52;;;;;;;13.64;30.55;101275.00;5056241;28;20094;-62
2022/03/12 03:10:50;;;;;;;16.83;9.48;;;;;;;13.64;30.98;101268.75;5038304;28;20049;-63
2022/03/12 03:13:17;;;;;;;15.32;9.90;;;;;;;13.64;31.02;101283.09;5038637;28;20041;-63
2022/03/12 03:15:48;;;;;;;13.23;9.35;;;;;;;13.62;31.01;101287.75;5055298;28;20049;-63
2022/03/12 03:18:17;;;;;;;11.93;8.82;;;;;;;13.62;31.18;101286.91;5038448;28;20463;-64
2022/03/12 03:20:45;;;;;;;13.95;9.63;;;;;;;13.61;31.21;101288.75;5038651;28;20044;-63
2022/03/12 03:23:12;;;;;;;13.10;8.93;;;;;;;13.63;31.22;101284.09;5055005;28;20047;-62
2022/03/12 03:25:45;;;;;;;17.05;9.50;;;;;;;13.62;31.23;101289.59;5036268;28;20050;-63
2022/03/12 03:28:12;;;;;;;16.40;9.68;;;;;;;13.61;31.32;101290.56;5001859;28;20045;-63
2022/03/12 03:30:40;;;;;;;13.80;10.43;;;;;;;13.61;31.46;101290.56;5028899;28;20041;-62
2022/03/12 03:33:12;;;;;;;13.40;10.10;;;;;;;13.59;31.64;101290.69;5036045;28;20037;-63
2022/03/12 03:35:39;;;;;;;13.70;9.38;;;;;;;13.59;31.56;101295.22;5055774;28;20041;-63
2022/03/12 03:38:08;;;;;;;13.07;9.18;;;;;;;13.57;31.73;101287.25;5055658;28;20125;-62
2022/03/12 03:40:35;;;;;;;13.52;8.70;;;;;;;13.56;31.84;101288.22;5055962;28;20132;-62
2022/03/12 03:43:06;;;;;;;14.77;9.10;;;;;;;13.56;31.88;101298.16;5055801;28;20388;-62
2022/03/12 03:45:33;;;;;;;12.02;9.30;;;;;;;13.53;32.10;101293.88;5034437;28;20474;-62
2022/03/12 03:47:59;;;;;;;11.82;9.35;;;;;;;13.54;32.26;101300.13;5035505;28;20042;-62
2022/03/12 03:50:27;;;;;;;15.57;9.50;;;;;;;13.55;32.14;101301.84;5035765;28;20045;-62
2022/03/12 03:53:02;;;;;;;15.90;9.50;;;;;;;13.56;32.27;101308.97;5034217;28;20461;-62
2022/03/12 03:55:30;;;;;;;16.48;10.18;;;;;;;13.56;32.28;101320.63;5053132;28;20102;-62
2022/03/12 03:57:58;;;;;;;12.90;9.10;;;;;;;13.55;32.41;101323.44;5037418;28;20040;-62
2022/03/12 04:00:26;;;;;;;15.75;9.70;;;;;;;13.53;32.71;101325.38;5060510;28;20051;-62
2022/03/12 04:03:04;;;;;;;14.90;10.23;;;;;;;13.52;32.69;101326.38;5057947;28;20120;-62
2022/03/12 04:05:36;;;;;;;14.68;10.10;;;;;;;13.48;32.94;101322.19;5054924;28;20099;-62
2022/03/12 04:08:07;;;;;;;15.57;9.52;;;;;;;13.43;32.88;101321.66;5055473;28;20052;-62
2022/03/12 04:10:36;;;;;;;15.85;9.55;;;;;;;13.39;32.91;101323.72;5055243;28;20045;-62
2022/03/12 04:13:11;;;;;;;18.08;9.55;;;;;;;13.34;33.21;101328.56;5055056;28;20044;-62
2022/03/12 04:15:39;;;;;;;16.23;10.25;;;;;;;13.28;33.06;101326.34;5054890;28;20421;-62
2022/03/12 04:18:06;;;;;;;17.20;9.90;;;;;;;13.24;33.29;101331.09;5054837;28;20479;-62
2022/03/12 04:20:32;;;;;;;15.98;10.00;;;;;;;13.17;33.32;101335.22;5055021;28;20094;-63
2022/03/12 04:22:59;;;;;;;17.30;10.55;;;;;;;13.09;33.37;101337.59;5054907;28;20041;-63
2022/03/12 04:25:27;;;;;;;16.70;9.95;;;;;;;13.02;33.62;101334.50;5054647;28;20496;-62
2022/03/12 04:27:53;;;;;;;16.50;10.60;;;;;;;12.94;33.66;101333.34;5054901;28;20056;-62
2022/03/12 04:30:20;;;;;;;15.50;10.40;;;;;;;12.89;33.76;101349.00;5054809;28;20037;-62
2022/03/12 04:32:47;;;;;;;20.25;10.73;;;;;;;12.80;33.90;101350.53;5054581;28;20052;-62
2022/03/12 04:35:16;;;;;;;15.38;10.45;;;;;;;12.70;34.09;101344.06;5054503;28;20449;-62
2022/03/12 04:37:43;;;;;;;12.45;9.60;;;;;;;12.63;34.35;101349.03;5054525;28;20117;-62
2022/03/12 04:40:15;;;;;;;15.07;10.48;;;;;;;12.58;34.38;101347.63;5054707;28;20043;-63
2022/03/12 04:42:44;;;;;;;16.20;10.57;;;;;;;12.52;34.58;101346.22;5054090;28;20162;-62
2022/03/12 04:45:14;;;;;;;16.67;10.52;;;;;;;12.48;34.62;101346.53;5054352;28;20136;-63
2022/03/12 04:47:43;;;;;;;16.55;10.48;;;;;;;12.42;34.78;101342.47;5054389;28;20045;-62
2022/03/12 04:50:14;;;;;;;17.48;10.38;;;;;;;12.40;34.87;101345.25;5054401;28;20045;-62
2022/03/12 04:52:46;;;;;;;14.73;10.02;;;;;;;12.36;35.03;101346.44;5054340;28;20041;-62
2022/03/12 04:55:21;;;;;;;17.02;10.43;;;;;;;12.32;35.19;101353.03;5036481;28;20411;-62
2022/03/12 04:57:49;;;;;;;16.65;10.45;;;;;;;12.27;35.14;101351.63;5054374;28;20483;-62
2022/03/12 05:00:28;;;;;;;26.33;11.00;;;;;;;12.19;35.55;101360.22;5054130;28;20524;-62
2022/03/12 05:03:02;;;;;;;17.70;10.38;;;;;;;12.15;35.47;101364.09;5036286;28;20470;-62
2022/03/12 05:05:29;;;;;;;13.25;10.13;;;;;;;12.14;35.49;101366.91;5054097;28;20120;-63
2022/03/12 05:07:58;;;;;;;15.35;10.73;;;;;;;12.12;35.58;101368.84;5036045;28;20475;-62
2022/03/12 05:10:27;;;;;;;16.13;10.45;;;;;;;12.08;35.45;101376.28;5053899;28;20487;-62
2022/03/12 05:13:00;;;;;;;16.13;10.90;;;;;;;12.05;35.72;101373.78;5053830;28;20060;-62
2022/03/12 05:15:34;;;;;;;14.75;9.85;;;;;;;12.01;35.81;101375.84;5053840;28;20120;-61
2022/03/12 05:18:06;;;;;;;15.73;10.25;;;;;;;11.96;35.77;101375.28;5053820;28;20045;-62
2022/03/12 05:20:36;;;;;;;14.65;10.05;;;;;;;11.92;35.98;101391.75;5053809;28;20087;-62
2022/03/12 05:23:06;;;;;;;14.90;9.85;;;;;;;11.89;36.10;101383.84;5054058;28;20041;-62
2022/03/12 05:25:34;;;;;;;15.52;9.95;;;;;;;11.87;36.22;101381.25;5053801;28;20055;-62
2022/03/12 05:28:01;;;;;;;14.88;10.25;;;;;;;11.85;36.50;101377.81;5053487;28;20120;-62
2022/03/12 05:30:27;;;;;;;15.73;9.88;;;;;;;11.85;36.46;101377.81;5053457;28;20048;-62
2022/03/12 05:32:55;;;;;;;13.18;9.93;;;;;;;11.83;36.61;101379.75;5053751;28;20051;-62
2022/03/12 05:35:21;;;;;;;13.65;10.00;;;;;;;11.77;36.66;101381.03;5053761;28;20051;-62
2022/03/12 05:37:53;;;;;;;16.08;10.60;;;;;;;11.75;36.94;101393.69;5019267;28;20144;-62
2022/03/12 05:40:26;;;;;;;14.02;9.68;;;;;;;11.73;37.02;101397.44;5053380;28;20049;-62
2022/03/12 05:42:56;;;;;;;17.80;9.65;;;;;;;11.70;37.31;101392.28;5033806;28;20046;-64
2022/03/12 05:45:23;;;;;;;16.35;10.50;;;;;;;11.69;37.52;101386.03;5033477;28;20124;-62
2022/03/12 05:47:51;;;;;;;12.50;8.95;;;;;;;11.70;37.66;101389.59;5015603;28;20041;-64
2022/03/12 05:50:19;;;;;;;14.80;10.55;;;;;;;11.71;37.86;101397.56;5033502;28;20045;-62
2022/03/12 05:52:49;;;;;;;13.75;9.38;;;;;;;11.72;38.12;101390.34;5053153;28;20141;-62
2022/03/12 05:55:18;;;;;;;12.55;9.40;;;;;;;11.71;38.23;101386.78;5052323;28;20542;-62
2022/03/12 05:57:44;;;;;;;13.27;9.30;;;;;;;11.73;38.49;101397.44;5053288;28;20087;-62
2022/03/12 06:00:12;;;;;;;13.57;9.30;;;;;;;11.74;38.67;101399.19;5053287;28;20116;-62
2022/03/12 06:02:49;;;;;;;13.38;9.52;;;;;;;11.74;38.58;101410.81;5053648;28;20041;-62
2022/03/12 06:05:24;;;;;;;13.70;9.65;;;;;;;11.73;38.58;101409.06;5053142;28;20576;-63
2022/03/12 06:07:52;;;;;;;17.40;9.82;;;;;;;11.73;38.93;101414.44;5035116;28;20228;-62
2022/03/12 06:10:23;;;;;;;13.15;9.70;;;;;;;11.74;39.03;101409.94;5052726;28;20113;-63
2022/03/12 06:12:53;;;;;;;16.48;9.73;;;;;;;11.75;39.09;101417.91;5052648;28;20079;-63
2022/03/12 06:15:25;;;;;;;12.48;9.65;;;;;;;11.77;39.21;101420.50;5019303;28;20448;-63
2022/03/12 06:17:53;;;;;;;16.05;10.38;;;;;;;11.73;39.28;101417.16;5053194;28;20041;-62
2022/03/12 06:20:21;;;;;;;14.23;10.18;;;;;;;11.70;39.20;101419.19;5052571;28;20538;-62
2022/03/12 06:22:50;;;;;;;15.18;9.82;;;;;;;11.67;39.36;101422.06;5052935;28;20045;-62
2022/03/12 06:25:22;;;;;;;14.63;9.73;;;;;;;11.66;39.46;101423.91;5053085;28;20080;-62
2022/03/12 06:27:55;;;;;;;13.45;10.32;;;;;;;11.64;39.66;101428.53;5034943;28;20137;-63
2022/03/12 06:30:24;;;;;;;12.35;9.55;;;;;;;11.64;40.08;101430.34;5052397;28;20048;-62
2022/03/12 06:32:55;;;;;;;17.65;10.07;;;;;;;11.63;39.97;101432.19;5053454;28;20037;-62
2022/03/12 06:35:23;;;;;;;12.93;9.07;;;;;;;11.63;40.07;101431.31;5053148;28;20055;-63
2022/03/12 06:37:50;;;;;;;12.27;9.00;;;;;;;11.63;40.08;101425.94;5052789;28;20064;-62
2022/03/12 06:40:18;;;;;;;14.13;9.68;;;;;;;11.62;40.30;101437.66;5052723;28;20045;-63
2022/03/12 06:42:48;;;;;;;12.55;8.85;;;;;;;11.62;40.55;101440.34;5052888;28;20072;-63
2022/03/12 06:45:15;;;;;;;14.50;9.38;;;;;;;11.63;40.69;101445.63;5053005;28;20048;-62
2022/03/12 06:47:44;;;;;;;13.85;9.27;;;;;;;11.66;40.74;101450.81;5052780;28;20068;-63
2022/03/12 06:50:13;;;;;;;12.98;9.25;;;;;;;11.70;41.03;101446.09;5052897;28;20041;-62
2022/03/12 06:52:43;;;;;;;12.55;9.40;;;;;;;11.73;41.34;101448.56;5053381;28;20048;-63
2022/03/12 06:55:10;;;;;;;15.35;9.23;;;;;;;11.78;41.51;101446.47;5052586;28;20041;-62
2022/03/12 06:57:38;;;;;;;14.15;9.00;;;;;;;11.82;41.68;101442.59;5052536;28;20075;-64
2022/03/12 07:00:10;;;;;;;10.90;8.05;;;;;;;11.88;41.93;101449.41;5034945;28;20124;-64
2022/03/12 07:02:37;;;;;;;12.52;9.05;;;;;;;11.93;41.93;101448.16;5052763;28;20117;-65
2022/03/12 07:05:05;;;;;;;14.18;9.18;;;;;;;11.98;42.02;101451.41;5052628;28;20091;-63
2022/03/12 07:07:32;;;;;;;12.50;8.60;;;;;;;12.04;42.22;101444.75;5054973;28;20045;-63
2022/03/12 07:09:59;;;;;;;12.07;8.40;;;;;;;12.08;42.30;101444.44;5056251;28;20069;-63
2022/03/12 07:12:25;;;;;;;10.70;7.53;;;;;;;12.15;42.33;101452.09;5056470;28;20041;-63
2022/03/12 07:14:52;;;;;;;12.35;8.02;;;;;;;12.20;42.55;101458.03;5056575;28;20045;-63
2022/03/12 07:17:20;;;;;;;11.32;8.23;;;;;;;12.27;42.67;101464.72;5055759;28;20033;-63
2022/03/12 07:19:47;;;;;;;14.57;8.93;;;;;;;12.32;42.75;101465.28;5056165;28;20053;-64
2022/03/12 07:22:15;;;;;;;13.65;8.30;;;;;;;12.38;42.86;101456.78;5055975;28;20049;-63
2022/03/12 07:24:41;;;;;;;12.98;8.45;;;;;;;12.43;42.95;101462.72;5055791;28;20056;-63
2022/03/12 07:27:08;;;;;;;11.55;7.63;;;;;;;12.50;43.26;101472.09;5056062;28;20120;-64
2022/03/12 07:29:36;;;;;;;14.18;8.43;;;;;;;12.57;43.03;101462.59;5055403;28;20517;-64
2022/03/12 07:32:04;;;;;;;14.50;8.60;;;;;;;12.64;43.12;101468.47;5042842;28;20045;-64
2022/03/12 07:34:30;;;;;;;11.98;8.15;;;;;;;12.70;43.48;101470.72;5055770;28;20037;-63
2022/03/12 07:36:57;;;;;;;10.32;8.55;;;;;;;12.76;43.44;101470.31;5055492;28;20037;-64
2022/03/12 07:39:24;;;;;;;12.80;8.27;;;;;;;12.84;43.60;101469.75;5055013;28;20037;-64
2022/03/12 07:41:50;;;;;;;11.88;7.95;;;;;;;12.91;43.71;101473.75;5055651;28;20128;-64
2022/03/12 07:44:17;;;;;;;10.90;7.78;;;;;;;13.00;43.83;101475.78;5055593;28;20049;-64
2022/03/12 07:46:44;;;;;;;11.20;7.80;;;;;;;13.07;43.88;101476.22;5055993;28;20391;-64
2022/03/12 07:49:11;;;;;;;11.25;8.05;;;;;;;13.13;43.89;101478.47;5055255;28;20045;-64
2022/03/12 07:51:38;;;;;;;12.52;8.48;;;;;;;13.18;44.16;101482.59;5055499;28;20091;-63
2022/03/12 07:54:07;;;;;;;12.30;8.80;;;;;;;13.24;44.02;101490.25;5037148;28;20403;-64
2022/03/12 07:56:36;;;;;;;9.80;7.75;;;;;;;13.34;44.18;101501.22;5055078;28;20041;-64
2022/03/12 07:59:03;;;;;;;12.52;8.40;;;;;;;13.44;44.13;101506.84;5054957;28;20460;-64
2022/03/12 08:01:29;;;;;;;10.70;7.82;;;;;;;13.54;44.33;101510.59;5055456;28;20491;-63
2022/03/12 08:03:57;;;;;;;10.80;8.25;;;;;;;13.63;44.06;101516.19;5054967;28;20045;-63
2022/03/12 08:06:23;;;;;;;11.70;8.32;;;;;;;13.73;44.04;101513.69;5054789;28;20037;-63
2022/03/12 08:08:50;;;;;;;12.32;8.88;;;;;;;13.83;44.10;101514.72;5054436;28;20411;-64
2022/03/12 08:11:25;;;;;;;11.73;8.32;;;;;;;13.93;44.18;101525.69;5054504;28;20069;-63
2022/03/12 08:13:54;;;;;;;10.95;8.75;;;;;;;14.00;44.02;101530.53;5054448;28;20116;-64
2022/03/12 08:16:21;;;;;;;10.98;7.65;;;;;;;14.11;44.07;101523.47;5036546;28;20132;-63
2022/03/12 08:18:48;;;;;;;11.63;8.02;;;;;;;14.19;44.14;101529.19;5051457;28;20033;-63
2022/03/12 08:21:15;;;;;;;9.18;7.22;;;;;;;14.26;44.03;101536.72;5054959;28;20120;-64
2022/03/12 08:23:42;;;;;;;10.70;8.10;;;;;;;14.34;43.91;101538.84;5037186;28;20116;-63
2022/03/12 08:26:09;;;;;;;11.50;8.63;;;;;;;14.42;44.26;101544.53;5054701;28;20041;-64
2022/03/12 08:28:36;;;;;;;10.40;7.80;;;;;;;14.49;44.05;101547.66;5054621;28;20037;-64
2022/03/12 08:31:03;;;;;;;11.25;7.70;;;;;;;14.54;44.37;101548.16;5054405;28;20037;-66
2022/03/12 08:33:30;;;;;;;9.93;7.43;;;;;;;14.60;44.40;101545.84;5020062;28;20075;-67
2022/03/12 08:35:58;;;;;;;11.63;7.68;;;;;;;14.69;44.25;101543.41;5054099;28;20164;-66
2022/03/12 08:38:26;;;;;;;9.27;7.65;;;;;;;14.73;44.23;101550.31;5054442;28;20087;-66
2022/03/12 08:40:54;;;;;;;9.43;7.22;;;;;;;14.79;44.65;101552.53;5054450;28;20083;-66
2022/03/12 08:43:21;;;;;;;11.82;7.25;;;;;;;14.86;44.42;101568.19;5054525;28;20407;-66
2022/03/12 08:45:48;;;;;;;10.35;6.82;;;;;;;14.97;44.62;101561.94;5036446;28;20143;-66
2022/03/12 08:48:16;;;;;;;8.52;7.10;;;;;;;15.08;44.49;101559.25;5054167;28;20479;-66
2022/03/12 08:50:44;;;;;;;8.32;6.63;;;;;;;15.20;44.58;101569.13;5036742;28;20040;-66
2022/03/12 08:53:11;;;;;;;7.60;5.90;;;;;;;15.33;44.98;101568.13;5036535;28;20140;-65
2022/03/12 08:55:39;;;;;;;8.02;5.82;;;;;;;15.45;45.12;101570.72;5054112;28;20120;-67
2022/03/12 08:58:06;;;;;;;7.03;5.57;;;;;;;15.62;45.07;101576.69;5054074;28;20474;-66
2022/03/12 09:00:34;;;;;;;8.98;5.85;;;;;;;15.79;44.89;101568.94;5053801;28;20047;-66
2022/03/12 09:03:02;;;;;;;8.30;5.78;;;;;;;15.99;44.94;101558.31;5054152;28;20044;-66
2022/03/12 09:05:28;;;;;;;8.88;5.47;;;;;;;16.15;44.96;101562.31;5054051;28;20523;-66
2022/03/12 09:07:56;;;;;;;7.07;5.18;;;;;;;16.31;44.87;101556.47;5053952;28;20049;-66
2022/03/12 09:10:23;;;;;;;5.53;4.57;;;;;;;16.46;44.54;101563.34;5053052;28;20052;-66
2022/03/12 09:12:50;;;;;;;7.90;4.97;;;;;;;16.63;44.60;101558.34;5054048;28;20036;-68
2022/03/12 09:15:21;;;;;;;7.28;5.03;;;;;;;16.73;44.31;101551.19;5036496;28;20041;-67
2022/03/12 09:17:47;;;;;;;6.85;5.00;;;;;;;16.79;44.12;101554.22;5036901;28;20517;-67
2022/03/12 09:20:14;;;;;;;5.50;4.50;;;;;;;16.90;44.08;101555.16;5053476;28;20146;-68
2022/03/12 09:22:41;;;;;;;7.22;4.93;;;;;;;17.00;43.93;101562.34;5054249;28;20051;-67
2022/03/12 09:25:11;;;;;;;6.65;3.67;;;;;;;17.07;43.84;101558.13;5053654;28;20051;-67
2022/03/12 09:27:38;;;;;;;8.73;4.70;;;;;;;17.13;43.88;101562.19;5035709;28;20052;-67
2022/03/12 09:30:06;;;;;;;7.53;4.20;;;;;;;17.18;43.36;101564.50;5053480;28;20128;-68
2022/03/12 09:32:33;;;;;;;6.85;3.95;;;;;;;17.22;43.11;101563.22;5053583;28;20116;-67
2022/03/12 09:34:59;;;;;;;7.28;3.95;;;;;;;17.25;43.29;101558.38;5053227;28;20051;-67
2022/03/12 09:37:26;;;;;;;5.20;4.10;;;;;;;17.30;43.12;101563.41;5035825;28;20041;-68
2022/03/12 09:39:53;;;;;;;5.43;4.00;;;;;;;17.32;43.05;101562.28;5035896;28;20075;-66
2022/03/12 09:42:20;;;;;;;7.40;4.90;;;;;;;17.37;43.02;101578.16;5035781;28;20041;-66
2022/03/12 09:44:47;;;;;;;6.32;3.72;;;;;;;17.42;42.65;101568.63;5035378;28;20049;-67
2022/03/12 09:47:14;;;;;;;8.65;4.88;;;;;;;17.47;42.52;101579.06;5053617;28;20407;-66
2022/03/12 09:49:41;;;;;;;6.40;3.88;;;;;;;17.48;42.43;101575.38;5053226;28;20045;-66
2022/03/12 09:52:09;;;;;;;7.18;3.63;;;;;;;17.48;42.67;101580.78;5053420;28;20091;-66
2022/03/12 09:54:35;;;;;;;5.70;4.13;;;;;;;17.49;42.17;101574.38;5018983;28;20064;-66
2022/03/12 09:57:02;;;;;;;5.43;4.15;;;;;;;17.50;42.15;101573.38;5053368;28;20047;-67
2022/03/12 09:59:29;;;;;;;6.10;4.18;;;;;;;17.59;42.39;101574.41;5053244;28;20401;-67
2022/03/12 10:01:56;;;;;;;9.18;4.70;;;;;;;17.72;42.31;101575.06;5053531;28;20047;-68
2022/03/12 10:04:22;;;;;;;8.52;4.47;;;;;;;17.82;42.35;101566.94;5052825;28;20087;-68
2022/03/12 10:06:49;;;;;;;6.97;4.55;;;;;;;17.91;42.32;101568.88;5053220;28;20047;-68
2022/03/12 10:09:16;;;;;;;8.88;5.35;;;;;;;17.98;42.14;101568.16;5035358;28;20487;-68
2022/03/12 10:11:44;;;;;;;7.80;4.72;;;;;;;18.05;42.26;101571.19;5053030;28;20051;-68
2022/03/12 10:14:12;;;;;;;6.60;4.20;;;;;;;18.12;42.29;101571.47;5052569;28;20039;-68
2022/03/12 10:16:40;;;;;;;6.22;4.40;;;;;;;18.16;41.74;101573.78;5053061;28;20135;-68
2022/03/12 10:19:07;;;;;;;7.20;4.63;;;;;;;18.20;42.02;101569.78;5052708;28;20037;-68
2022/03/12 10:21:37;;;;;;;8.32;4.60;;;;;;;18.25;41.95;101572.06;5052545;28;20483;-68
2022/03/12 10:24:07;;;;;;;6.72;4.15;;;;;;;18.32;41.59;101582.25;5053251;28;20394;-69
2022/03/12 10:26:34;;;;;;;6.30;4.10;;;;;;;18.39;41.43;101577.09;5052665;28;20543;-68
2022/03/12 10:29:01;;;;;;;6.00;3.90;;;;;;;18.41;41.66;101578.69;5053094;28;20076;-68
2022/03/12 10:31:28;;;;;;;6.45;4.10;;;;;;;18.43;41.26;101583.97;5052818;28;20045;-68
2022/03/12 10:34:18;;;;;;;8.77;4.63;;;;;;;18.39;41.23;101590.69;5052992;28;20107;-68
2022/03/12 10:36:45;;;;;;;7.85;4.10;;;;;;;18.39;41.29;101590.69;5052900;28;20044;-68
2022/03/12 10:39:12;;;;;;;6.88;4.20;;;;;;;18.38;41.23;101587.13;5035338;28;20506;-69
2022/03/12 10:41:41;;;;;;;7.15;4.68;;;;;;;18.37;41.17;101589.97;5035917;28;20040;-68
2022/03/12 10:44:08;;;;;;;9.50;4.43;;;;;;;18.31;40.76;101585.09;5056928;28;20045;-69
2022/03/12 10:46:41;;;;;;;7.03;5.10;;;;;;;18.23;41.13;101590.41;5062786;28;20045;-68
2022/03/12 10:49:10;;;;;;;6.45;4.38;;;;;;;18.15;40.64;101590.22;5039187;28;20041;-68
2022/03/12 10:51:39;;;;;;;8.27;4.80;;;;;;;18.09;41.14;101589.78;5056650;28;20049;-68
2022/03/12 10:54:15;;;;;;;7.18;4.80;;;;;;;18.05;40.83;101582.91;5056409;28;20479;-68
2022/03/12 10:56:48;;;;;;;7.25;4.63;;;;;;;18.03;41.35;101584.06;5056553;28;20033;-68
2022/03/12 10:59:20;;;;;;;7.95;5.05;;;;;;;18.01;41.38;101586.91;5056578;28;20140;-68
2022/03/12 11:01:57;;;;;;;7.18;4.28;;;;;;;18.02;41.56;101582.34;5056438;28;20128;-69
2022/03/12 11:04:30;;;;;;;7.82;4.63;;;;;;;18.02;41.04;101577.75;5056136;28;20040;-68
2022/03/12 11:06:58;;;;;;;7.63;4.43;;;;;;;18.04;41.14;101581.19;5056629;28;20120;-68
2022/03/12 11:09:36;;;;;;;8.68;4.82;;;;;;;18.03;41.22;101594.94;5055873;28;20047;-68
2022/03/12 11:12:29;;;;;;;7.00;5.68;;;;;;;18.00;41.36;101593.34;5056124;28;20398;-68
2022/03/12 11:15:05;;;;;;;8.63;5.50;;;;;;;17.97;41.40;101590.06;5019096;28;20044;-67
2022/03/12 11:17:43;;;;;;;9.13;5.22;;;;;;;17.95;41.38;101594.75;5036213;28;20053;-68
2022/03/12 11:20:27;;;;;;;5.28;4.57;;;;;;;17.94;41.68;101587.59;5033514;28;20350;-68
2022/03/12 11:23:07;;;;;;;9.13;5.30;;;;;;;18.05;41.56;101582.06;5039386;28;20048;-67
2022/03/12 11:25:36;;;;;;;5.97;4.38;;;;;;;18.24;41.71;101579.38;5045442;28;20059;-68